Terminal Aerodrome Forecast
Issued by NWS Duluth, MN

Home | Current Version | Previous Version | Text Only | Print | Product List | Glossary On
Versions: 1 2 3 4 5 6 7 8 9 10 11 12 13 14 15 16 17 18 19 20 21
000
FTUS43 KDLH 311144
TAFINL
TAF
KINL 311144Z 3112/0112 12014G22KT P6SM VCSH BKN080 BKN090
     FM311400 12014G22KT 5SM -RA BR SCT012 OVC025
     FM311700 12014G21KT 3SM -RA BR VCTS BKN015CB
     FM312100 13012G18KT 3SM BR VCTS BKN008CB
     FM010200 13011KT 3SM BR OVC012
     FM010600 13005KT P6SM SCT015 BKN080
     FM011000 14004KT P6SM VCSH BKN025=

USA.gov is the U.S. government's official web portal to all federal, state and local government web resources and services.